Time,TemperatureF,DewpointF,PressureIn,WindDirection,WindDirectionDegrees,WindSpeedMPH,WindSpeedGustMPH,Humidity,HourlyPrecipIn,Conditions,Clouds,dailyrainin,SoftwareType,DateUTC
2013-07-11 00:00:00,68.5,50.2,30.12,East,82,10.5,10.5,52,0.00,,---,0.00,VWS V14.01,2013-07-11 06:00:00,
2013-07-11 00:05:00,68.4,50.6,30.12,East,86,10.1,10.1,53,0.00,,---,0.00,VWS V14.01,2013-07-11 06:05:00,
2013-07-11 00:11:00,68.7,51.4,30.12,East,89,10.5,11.0,54,0.00,,---,0.00,VWS V14.01,2013-07-11 06:11:00,
2013-07-11 00:17:00,69.3,51.9,30.12,East,97,8.3,10.5,54,0.00,,---,0.00,VWS V14.01,2013-07-11 06:17:00,
2013-07-11 00:22:00,69.1,51.2,30.09,ESE,104,11.0,11.0,53,0.00,,---,0.00,VWS V14.01,2013-07-11 06:22:00,
2013-07-11 00:27:00,68.9,50.6,30.09,ESE,106,13.6,13.6,52,0.00,,---,0.00,VWS V14.01,2013-07-11 06:27:00,
2013-07-11 00:32:00,68.5,50.2,30.09,East,96,10.1,10.1,52,0.00,,---,0.00,VWS V14.01,2013-07-11 06:32:00,
2013-07-11 00:37:00,68.4,50.6,30.12,ENE,76,10.5,12.3,53,0.00,,---,0.00,VWS V14.01,2013-07-11 06:37:00,
2013-07-11 00:42:00,68.2,50.4,30.12,East,100,8.7,8.7,53,0.00,,---,0.00,VWS V14.01,2013-07-11 06:42:00,
2013-07-11 00:48:00,68.0,50.2,30.12,East,93,10.1,10.1,53,0.00,,---,0.00,VWS V14.01,2013-07-11 06:48:00,
2013-07-11 00:53:00,67.6,49.9,30.12,East,92,11.0,11.0,53,0.00,,---,0.00,VWS V14.01,2013-07-11 06:53:00,
2013-07-11 00:58:00,67.5,50.2,30.12,East,96,11.0,11.0,54,0.00,,---,0.00,VWS V14.01,2013-07-11 06:58:00,
2013-07-11 01:03:00,67.5,50.8,30.12,ESE,111,10.1,11.0,55,0.00,,---,0.00,VWS V14.01,2013-07-11 07:03:00,
2013-07-11 01:09:00,68.0,51.2,30.12,ESE,110,10.1,10.1,55,0.00,,---,0.00,VWS V14.01,2013-07-11 07:09:00,
2013-07-11 01:14:00,68.4,51.6,30.12,SE,145,8.3,10.1,55,0.00,,---,0.00,VWS V14.01,2013-07-11 07:14:00,
2013-07-11 01:19:00,68.2,51.9,30.12,SE,141,7.6,7.6,56,0.00,,---,0.00,VWS V14.01,2013-07-11 07:19:00,
2013-07-11 01:24:00,68.0,51.7,30.09,SE,128,10.5,10.5,56,0.00,,---,0.00,VWS V14.01,2013-07-11 07:24:00,
2013-07-11 01:30:00,67.8,51.6,30.09,ESE,123,8.7,8.7,56,0.00,,---,0.00,VWS V14.01,2013-07-11 07:30:00,
2013-07-11 01:35:00,67.5,51.2,30.09,ESE,108,8.7,9.6,56,0.00,,---,0.00,VWS V14.01,2013-07-11 07:35:00,
2013-07-11 01:41:00,67.5,51.2,30.12,SE,128,7.6,8.3,56,0.00,,---,0.00,VWS V14.01,2013-07-11 07:41:00,
2013-07-11 01:47:00,67.3,51.5,30.12,SE,145,8.3,8.3,57,0.00,,---,0.00,VWS V14.01,2013-07-11 07:47:00,
2013-07-11 01:53:00,67.3,52.0,30.12,SE,139,8.1,8.7,58,0.00,,---,0.00,VWS V14.01,2013-07-11 07:53:00,
2013-07-11 01:59:00,67.1,51.8,30.12,SE,142,10.1,10.1,58,0.00,,---,0.00,VWS V14.01,2013-07-11 07:59:00,
2013-07-11 02:04:00,67.1,52.3,30.12,SSE,152,9.2,10.1,59,0.00,,---,0.00,VWS V14.01,2013-07-11 08:04:00,
2013-07-11 02:09:00,67.1,52.3,30.12,SSE,151,9.6,10.1,59,0.00,,---,0.00,VWS V14.01,2013-07-11 08:09:00,
2013-07-11 02:15:00,67.1,52.3,30.12,SSE,153,10.1,10.5,59,0.00,,---,0.00,VWS V14.01,2013-07-11 08:15:00,
2013-07-11 02:20:00,67.3,52.9,30.09,SE,145,8.7,9.2,60,0.00,,---,0.00,VWS V14.01,2013-07-11 08:20:00,
2013-07-11 02:26:00,67.3,52.9,30.09,SSE,153,10.5,10.5,60,0.00,,---,0.00,VWS V14.01,2013-07-11 08:26:00,
2013-07-11 02:31:00,67.1,52.8,30.09,SSE,149,8.3,8.7,60,0.00,,---,0.00,VWS V14.01,2013-07-11 08:31:00,
2013-07-11 02:37:00,66.9,52.6,30.09,SE,127,9.6,10.5,60,0.00,,---,0.00,VWS V14.01,2013-07-11 08:37:00,
2013-07-11 02:43:00,66.7,52.4,30.09,SE,126,11.0,11.0,60,0.00,,---,0.00,VWS V14.01,2013-07-11 08:43:00,
2013-07-11 02:48:00,66.6,52.7,30.09,SE,128,11.0,11.0,61,0.00,,---,0.00,VWS V14.01,2013-07-11 08:48:00,
2013-07-11 02:54:00,66.4,52.5,30.09,SE,139,11.0,11.0,61,0.00,,---,0.00,VWS V14.01,2013-07-11 08:54:00,
2013-07-11 02:59:00,66.6,53.2,30.09,SE,142,10.5,11.0,62,0.00,,---,0.00,VWS V14.01,2013-07-11 08:59:00,
2013-07-11 03:05:00,66.7,54.2,30.09,SE,146,11.0,12.3,64,0.00,,---,0.00,VWS V14.01,2013-07-11 09:05:00,
2013-07-11 03:11:00,66.9,53.9,30.09,SE,144,11.9,12.3,63,0.00,,---,0.00,VWS V14.01,2013-07-11 09:11:00,
2013-07-11 03:16:00,66.9,53.9,30.09,SSE,150,8.7,12.3,63,0.00,,---,0.00,VWS V14.01,2013-07-11 09:16:00,
2013-07-11 03:22:00,67.1,54.1,30.09,SSE,152,10.1,10.5,63,0.00,,---,0.00,VWS V14.01,2013-07-11 09:22:00,
2013-07-11 03:27:00,67.1,54.1,30.09,SE,135,10.1,11.9,63,0.00,,---,0.00,VWS V14.01,2013-07-11 09:27:00,
2013-07-11 03:32:00,67.3,54.3,30.09,SE,133,10.5,12.3,63,0.00,,---,0.00,VWS V14.01,2013-07-11 09:32:00,
2013-07-11 03:38:00,67.6,54.6,30.09,SSE,165,11.0,11.0,63,0.00,,---,0.00,VWS V14.01,2013-07-11 09:38:00,
2013-07-11 03:44:00,67.6,54.6,30.09,SSE,154,13.2,13.2,63,0.00,,---,0.00,VWS V14.01,2013-07-11 09:44:00,
2013-07-11 03:50:00,67.5,54.4,30.09,SSE,166,13.2,13.2,63,0.00,,---,0.00,VWS V14.01,2013-07-11 09:50:00,
2013-07-11 03:55:00,67.5,54.4,30.09,SSE,165,12.8,12.8,63,0.00,,---,0.00,VWS V14.01,2013-07-11 09:55:00,
2013-07-11 04:00:00,67.5,54.4,30.09,SSE,160,10.1,12.8,63,0.00,,---,0.00,VWS V14.01,2013-07-11 10:00:00,
2013-07-11 04:06:00,67.5,54.4,30.09,SSE,150,15.0,15.0,63,0.00,,---,0.00,VWS V14.01,2013-07-11 10:06:00,
2013-07-11 04:11:00,67.3,54.3,30.09,SE,146,12.3,12.3,63,0.00,,---,0.00,VWS V14.01,2013-07-11 10:11:00,
2013-07-11 04:16:00,67.1,54.1,30.09,South,173,11.0,11.9,63,0.00,,---,0.00,VWS V14.01,2013-07-11 10:16:00,
2013-07-11 04:22:00,66.9,53.9,30.12,SSE,160,12.3,12.3,63,0.00,,---,0.00,VWS V14.01,2013-07-11 10:22:00,
2013-07-11 04:27:00,66.7,53.8,30.12,SSE,148,11.9,11.9,63,0.00,,---,0.00,VWS V14.01,2013-07-11 10:27:00,
2013-07-11 04:33:00,66.7,54.2,30.12,SSE,150,14.5,14.5,64,0.00,,---,0.00,VWS V14.01,2013-07-11 10:33:00,
2013-07-11 04:39:00,66.6,54.0,30.09,SE,142,10.5,11.9,64,0.00,,---,0.00,VWS V14.01,2013-07-11 10:39:00,
2013-07-11 04:44:00,66.6,54.0,30.09,SSE,167,10.5,13.6,64,0.00,,---,0.00,VWS V14.01,2013-07-11 10:44:00,
2013-07-11 04:50:00,66.4,53.8,30.09,SSE,152,11.0,11.9,64,0.00,,---,0.00,VWS V14.01,2013-07-11 10:50:00,
2013-07-11 04:56:00,66.4,54.3,30.09,SSE,153,10.1,10.1,65,0.00,,---,0.00,VWS V14.01,2013-07-11 10:56:00,
2013-07-11 05:01:00,66.6,54.4,30.09,South,169,10.1,10.1,65,0.00,,---,0.00,VWS V14.01,2013-07-11 11:01:00,
2013-07-11 05:07:00,66.6,54.4,30.09,SSE,167,8.3,8.3,65,0.00,,---,0.00,VWS V14.01,2013-07-11 11:07:00,
2013-07-11 05:12:00,66.6,54.4,30.09,SSE,153,10.5,10.5,65,0.00,,---,0.00,VWS V14.01,2013-07-11 11:12:00,
2013-07-11 05:17:00,66.4,54.3,30.09,SSE,158,8.3,8.3,65,0.00,,---,0.00,VWS V14.01,2013-07-11 11:17:00,
2013-07-11 05:23:00,66.2,54.1,30.09,SSE,162,8.7,8.7,65,0.00,,---,0.00,VWS V14.01,2013-07-11 11:23:00,
2013-07-11 05:29:00,66.0,54.3,30.09,South,176,7.2,8.1,66,0.00,,---,0.00,VWS V14.01,2013-07-11 11:29:00,
2013-07-11 05:34:00,65.8,53.8,30.09,South,186,4.0,4.0,65,0.00,,---,0.00,VWS V14.01,2013-07-11 11:34:00,
2013-07-11 05:39:00,65.7,53.6,30.09,South,185,4.0,4.0,65,0.00,,---,0.00,VWS V14.01,2013-07-11 11:39:00,
2013-07-11 05:45:00,65.5,53.4,30.09,South,176,3.6,4.0,65,0.00,,---,0.00,VWS V14.01,2013-07-11 11:45:00,
2013-07-11 05:50:00,65.3,53.2,30.09,South,176,2.7,2.7,65,0.00,,---,0.00,VWS V14.01,2013-07-11 11:50:00,
2013-07-11 05:56:00,65.7,53.6,30.09,South,176,0.0,0.0,65,0.00,,---,0.00,VWS V14.01,2013-07-11 11:56:00,
2013-07-11 06:01:00,66.4,54.7,30.09,SSE,151,5.8,5.8,66,0.00,,---,0.00,VWS V14.01,2013-07-11 12:01:00,
2013-07-11 06:07:00,67.1,55.4,30.06,SSE,165,6.7,6.7,66,0.00,,---,0.00,VWS V14.01,2013-07-11 12:07:00,
2013-07-11 06:13:00,68.0,56.2,30.06,SSE,164,5.4,5.8,66,0.00,,---,0.00,VWS V14.01,2013-07-11 12:13:00,
2013-07-11 06:18:00,68.4,56.6,30.06,SSE,165,3.6,4.9,66,0.00,,---,0.00,VWS V14.01,2013-07-11 12:18:00,
2013-07-11 06:24:00,69.3,57.4,30.09,South,171,0.0,4.0,66,0.00,,---,0.00,VWS V14.01,2013-07-11 12:24:00,
2013-07-11 06:29:00,70.0,58.1,30.09,South,180,2.7,2.7,66,0.00,,---,0.00,VWS V14.01,2013-07-11 12:29:00,
2013-07-11 06:35:00,70.3,58.5,30.09,South,187,4.9,5.4,66,0.00,,---,0.00,VWS V14.01,2013-07-11 12:35:00,
2013-07-11 06:40:00,71.6,59.7,30.09,South,177,4.9,4.9,66,0.00,,---,0.00,VWS V14.01,2013-07-11 12:40:00,
2013-07-11 06:46:00,72.5,60.1,30.09,SSE,154,5.8,5.8,65,0.00,,---,0.00,VWS V14.01,2013-07-11 12:46:00,
2013-07-11 06:52:00,73.0,60.6,30.06,SSE,158,6.3,6.3,65,0.00,,---,0.00,VWS V14.01,2013-07-11 12:52:00,
2013-07-11 06:57:00,73.4,60.5,30.06,SE,139,8.7,8.7,64,0.00,,---,0.00,VWS V14.01,2013-07-11 12:57:00,
2013-07-11 07:03:00,73.8,60.4,30.06,SSE,150,6.3,6.3,63,0.00,,---,0.00,VWS V14.01,2013-07-11 13:03:00,
2013-07-11 07:08:00,74.1,60.3,30.09,SE,143,6.7,6.7,62,0.00,,---,0.00,VWS V14.01,2013-07-11 13:08:00,
2013-07-11 07:14:00,74.5,59.7,30.09,SSW,199,5.4,7.6,60,0.00,,---,0.00,VWS V14.01,2013-07-11 13:14:00,
2013-07-11 07:20:00,74.3,59.1,30.09,SSE,164,7.6,7.6,59,0.00,,---,0.00,VWS V14.01,2013-07-11 13:20:00,
2013-07-11 07:25:00,74.7,59.4,30.09,South,173,8.1,8.3,59,0.00,,---,0.00,VWS V14.01,2013-07-11 13:25:00,
2013-07-11 07:30:00,75.2,58.9,30.09,SSE,164,4.5,7.2,57,0.00,,---,0.00,VWS V14.01,2013-07-11 13:30:00,
2013-07-11 07:35:00,75.4,59.1,30.09,SSE,159,8.3,8.3,57,0.00,,---,0.00,VWS V14.01,2013-07-11 13:35:00,
2013-07-11 07:40:00,75.9,59.1,30.09,SSE,164,8.3,8.3,56,0.00,,---,0.00,VWS V14.01,2013-07-11 13:40:00,
2013-07-11 07:45:00,76.3,58.9,30.09,South,180,7.6,8.3,55,0.00,,---,0.00,VWS V14.01,2013-07-11 13:45:00,
2013-07-11 07:51:00,76.6,57.7,30.09,SSE,167,8.1,8.3,52,0.00,,---,0.00,VWS V14.01,2013-07-11 13:51:00,
2013-07-11 07:58:00,77.0,57.0,30.09,SSW,196,7.2,7.2,50,0.00,,---,0.00,VWS V14.01,2013-07-11 13:58:00,
2013-07-11 08:03:00,77.2,56.0,30.09,South,191,5.8,5.8,48,0.00,,---,0.00,VWS V14.01,2013-07-11 14:03:00,
2013-07-11 08:09:00,77.7,55.9,30.09,SSW,198,8.1,8.1,47,0.00,,---,0.00,VWS V14.01,2013-07-11 14:09:00,
2013-07-11 08:14:00,78.1,53.8,30.09,South,184,8.7,8.7,43,0.00,,---,0.00,VWS V14.01,2013-07-11 14:14:00,
2013-07-11 08:20:00,78.1,52.5,30.09,South,190,8.7,9.6,41,0.00,,---,0.00,VWS V14.01,2013-07-11 14:20:00,
2013-07-11 08:26:00,78.1,51.8,30.09,South,182,11.0,11.0,40,0.00,,---,0.00,VWS V14.01,2013-07-11 14:26:00,
2013-07-11 08:31:00,78.6,53.0,30.09,SSE,164,7.6,8.1,41,0.00,,---,0.00,VWS V14.01,2013-07-11 14:31:00,
2013-07-11 08:37:00,79.5,53.8,30.09,SSE,159,8.7,8.7,41,0.00,,---,0.00,VWS V14.01,2013-07-11 14:37:00,
2013-07-11 08:42:00,79.7,53.9,30.09,SSE,147,11.0,11.0,41,0.00,,---,0.00,VWS V14.01,2013-07-11 14:42:00,
2013-07-11 08:48:00,81.1,53.2,30.09,SSE,156,10.1,12.8,38,0.00,,---,0.00,VWS V14.01,2013-07-11 14:48:00,
2013-07-11 08:54:00,81.7,52.2,30.09,South,180,8.3,8.3,36,0.00,,---,0.00,VWS V14.01,2013-07-11 14:54:00,
2013-07-11 09:01:00,81.7,51.4,30.09,SE,141,9.6,9.6,35,0.00,,---,0.00,VWS V14.01,2013-07-11 15:01:00,
2013-07-11 09:06:00,82.0,51.7,30.09,ESE,122,8.7,10.1,35,0.00,,---,0.00,VWS V14.01,2013-07-11 15:06:00,
2013-07-11 09:11:00,82.4,50.4,30.06,SE,136,11.0,13.6,33,0.00,,---,0.00,VWS V14.01,2013-07-11 15:11:00,
2013-07-11 09:16:00,82.8,49.9,30.06,SSE,151,12.3,12.3,32,0.00,,---,0.00,VWS V14.01,2013-07-11 15:16:00,
2013-07-11 09:22:00,82.9,50.1,30.06,SSE,151,10.5,10.5,32,0.00,,---,0.00,VWS V14.01,2013-07-11 15:22:00,
2013-07-11 09:27:00,83.1,49.4,30.06,South,170,11.0,12.3,31,0.00,,---,0.00,VWS V14.01,2013-07-11 15:27:00,
2013-07-11 09:33:00,83.5,49.7,30.06,SSE,150,8.3,10.5,31,0.00,,---,0.00,VWS V14.01,2013-07-11 15:33:00,
2013-07-11 09:38:00,83.7,49.8,30.06,SSE,159,11.0,11.0,31,0.00,,---,0.00,VWS V14.01,2013-07-11 15:38:00,
2013-07-11 09:44:00,84.2,49.4,30.06,SSE,151,13.2,15.4,30,0.00,,---,0.00,VWS V14.01,2013-07-11 15:44:00,
2013-07-11 09:51:00,84.2,49.4,30.06,SSE,148,10.5,10.5,30,0.00,,---,0.00,VWS V14.01,2013-07-11 15:51:00,
2013-07-11 09:57:00,84.6,49.8,30.06,SE,143,20.6,20.6,30,0.00,,---,0.00,VWS V14.01,2013-07-11 15:57:00,
2013-07-11 10:02:00,84.6,49.8,30.06,SE,130,17.9,17.9,30,0.00,,---,0.00,VWS V14.01,2013-07-11 16:02:00,
2013-07-11 10:09:00,84.6,48.8,30.06,SSE,150,20.1,20.1,29,0.00,,---,0.00,VWS V14.01,2013-07-11 16:09:00,
2013-07-11 10:15:00,84.4,48.7,30.06,SE,144,22.4,22.4,29,0.00,,---,0.00,VWS V14.01,2013-07-11 16:15:00,
2013-07-11 10:20:00,84.6,48.8,30.06,SE,133,11.4,15.0,29,0.00,,---,0.00,VWS V14.01,2013-07-11 16:20:00,
2013-07-11 10:27:00,84.9,49.2,30.06,SSE,157,12.3,24.2,29,0.00,,---,0.00,VWS V14.01,2013-07-11 16:27:00,
2013-07-11 10:34:00,85.1,48.4,30.06,SSE,149,20.1,20.1,28,0.00,,---,0.00,VWS V14.01,2013-07-11 16:34:00,
2013-07-11 10:40:00,85.6,47.9,30.06,SE,138,16.8,17.4,27,0.00,,---,0.00,VWS V14.01,2013-07-11 16:40:00,
2013-07-11 10:46:00,86.0,47.2,30.06,SE,140,22.8,22.8,26,0.00,,---,0.00,VWS V14.01,2013-07-11 16:46:00,
2013-07-11 10:51:00,86.0,47.2,30.06,SSE,152,19.7,20.6,26,0.00,,---,0.00,VWS V14.01,2013-07-11 16:51:00,
2013-07-11 10:56:00,86.2,48.3,30.06,SE,142,26.2,26.2,27,0.00,,---,0.00,VWS V14.01,2013-07-11 16:56:00,
2013-07-11 11:01:00,86.5,48.6,30.06,SE,143,15.0,15.0,27,0.00,,---,0.00,VWS V14.01,2013-07-11 17:01:00,
2013-07-11 11:06:00,86.9,48.9,30.06,SSE,151,19.2,22.4,27,0.00,,---,0.00,VWS V14.01,2013-07-11 17:06:00,
2013-07-11 11:12:00,87.1,48.1,30.06,SE,139,19.7,19.7,26,0.00,,---,0.00,VWS V14.01,2013-07-11 17:12:00,
2013-07-11 11:18:00,87.1,48.1,30.06,SE,140,21.0,22.8,26,0.00,,---,0.00,VWS V14.01,2013-07-11 17:18:00,
2013-07-11 11:24:00,87.4,48.4,30.06,SSE,147,22.8,22.8,26,0.00,,---,0.00,VWS V14.01,2013-07-11 17:24:00,
2013-07-11 11:30:00,87.4,48.4,30.06,SE,143,17.0,17.0,26,0.00,,---,0.00,VWS V14.01,2013-07-11 17:30:00,
2013-07-11 11:35:00,87.8,48.7,30.06,SE,131,23.3,23.3,26,0.00,,---,0.00,VWS V14.01,2013-07-11 17:35:00,
2013-07-11 11:40:00,88.2,47.9,30.06,SE,141,22.8,24.6,25,0.00,,---,0.00,VWS V14.01,2013-07-11 17:40:00,
2013-07-11 11:46:00,88.5,48.2,30.06,SE,145,16.3,22.8,25,0.00,,---,0.00,VWS V14.01,2013-07-11 17:46:00,
2013-07-11 11:51:00,88.9,47.5,30.06,SE,130,17.4,17.4,24,0.00,,---,0.00,VWS V14.01,2013-07-11 17:51:00,
2013-07-11 11:57:00,89.1,46.5,30.06,SE,138,22.8,22.8,23,0.00,,---,0.00,VWS V14.01,2013-07-11 17:57:00,
2013-07-11 12:03:00,89.4,46.8,30.06,SSE,154,22.4,22.4,23,0.00,,---,0.00,VWS V14.01,2013-07-11 18:03:00,
2013-07-11 12:08:00,89.2,46.6,30.06,SSE,151,17.0,17.0,23,0.00,,---,0.00,VWS V14.01,2013-07-11 18:08:00,
2013-07-11 12:14:00,89.2,45.5,30.06,SSE,154,18.8,18.8,22,0.00,,---,0.00,VWS V14.01,2013-07-11 18:14:00,
2013-07-11 12:19:00,89.2,45.5,30.06,SE,135,25.1,25.1,22,0.00,,---,0.00,VWS V14.01,2013-07-11 18:19:00,
2013-07-11 12:25:00,89.4,45.6,30.03,SSE,149,19.2,19.2,22,0.00,,---,0.00,VWS V14.01,2013-07-11 18:25:00,
2013-07-11 12:32:00,89.6,44.5,30.03,SE,146,17.9,21.0,21,0.00,,---,0.00,VWS V14.01,2013-07-11 18:32:00,
2013-07-11 12:37:00,90.1,45.0,30.03,SE,129,20.6,20.6,21,0.00,,---,0.00,VWS V14.01,2013-07-11 18:37:00,
2013-07-11 12:43:00,90.3,43.8,30.03,SSE,153,18.3,19.7,20,0.00,,---,0.00,VWS V14.01,2013-07-11 18:43:00,
2013-07-11 12:49:00,90.5,44.0,30.03,SE,140,20.6,20.6,20,0.00,,---,0.00,VWS V14.01,2013-07-11 18:49:00,
2013-07-11 12:54:00,90.7,44.1,30.03,SSE,151,17.0,21.9,20,0.00,,---,0.00,VWS V14.01,2013-07-11 18:54:00,
2013-07-11 13:00:00,91.4,43.4,30.03,SE,138,17.4,17.4,19,0.00,,---,0.00,VWS V14.01,2013-07-11 19:00:00,
2013-07-11 13:05:00,92.1,44.0,30.03,SE,125,20.1,20.1,19,0.00,,---,0.00,VWS V14.01,2013-07-11 19:05:00,
2013-07-11 13:11:00,92.7,44.4,30.03,SE,137,15.4,22.4,19,0.00,,---,0.00,VWS V14.01,2013-07-11 19:11:00,
2013-07-11 13:17:00,93.0,43.3,30.03,SE,145,21.0,21.0,18,0.00,,---,0.00,VWS V14.01,2013-07-11 19:17:00,
2013-07-11 13:22:00,93.2,42.0,30.03,SE,135,25.1,25.1,17,0.00,,---,0.00,VWS V14.01,2013-07-11 19:22:00,
2013-07-11 13:28:00,93.2,42.0,30.03,SE,131,17.4,20.1,17,0.00,,---,0.00,VWS V14.01,2013-07-11 19:28:00,
2013-07-11 13:33:00,92.8,43.2,30.03,SE,128,18.8,18.8,18,0.00,,---,0.00,VWS V14.01,2013-07-11 19:33:00,
2013-07-11 13:39:00,93.6,42.2,30.03,SSE,158,17.4,22.8,17,0.00,,---,0.00,VWS V14.01,2013-07-11 19:39:00,
2013-07-11 13:45:00,93.4,42.1,30.03,SE,141,17.4,18.8,17,0.00,,---,0.00,VWS V14.01,2013-07-11 19:45:00,
2013-07-11 13:50:00,93.2,42.0,30.03,ESE,123,18.8,18.8,17,0.00,,---,0.00,VWS V14.01,2013-07-11 19:50:00,
2013-07-11 13:56:00,92.8,41.7,30.03,SE,133,24.2,25.1,17,0.00,,---,0.00,VWS V14.01,2013-07-11 19:56:00,
2013-07-11 14:03:00,93.0,41.8,30.03,SSE,147,22.4,22.4,17,0.00,,---,0.00,VWS V14.01,2013-07-11 20:03:00,
2013-07-11 14:10:00,93.2,42.0,30.00,SE,145,24.6,25.1,17,0.00,,---,0.00,VWS V14.01,2013-07-11 20:10:00,
2013-07-11 14:16:00,93.7,42.4,30.00,SSE,151,17.0,18.8,17,0.00,,---,0.00,VWS V14.01,2013-07-11 20:16:00,
2013-07-11 14:21:00,93.7,42.4,30.00,SE,134,23.7,23.7,17,0.00,,---,0.00,VWS V14.01,2013-07-11 20:21:00,
2013-07-11 14:27:00,94.1,42.7,30.00,SE,137,27.1,27.1,17,0.00,,---,0.00,VWS V14.01,2013-07-11 20:27:00,
2013-07-11 14:33:00,94.3,42.8,30.00,SE,129,17.9,17.9,17,0.00,,---,0.00,VWS V14.01,2013-07-11 20:33:00,
2013-07-11 14:39:00,94.5,43.0,30.00,ESE,119,23.3,26.6,17,0.75,,---,0.75,VWS V14.01,2013-07-11 20:39:00,
2013-07-11 14:45:00,94.5,41.4,30.00,SE,128,18.8,25.5,16,2.72,,---,2.72,VWS V14.01,2013-07-11 20:45:00,
2013-07-11 14:52:00,94.6,41.5,30.00,SE,135,23.3,23.3,16,2.72,,---,2.72,VWS V14.01,2013-07-11 20:52:00,
2013-07-11 14:58:00,94.6,41.5,30.00,SE,126,25.1,25.1,16,2.72,,---,2.72,VWS V14.01,2013-07-11 20:58:00,
2013-07-11 15:05:00,94.5,41.4,30.00,SE,133,22.4,25.1,16,2.72,,---,2.72,VWS V14.01,2013-07-11 21:05:00,
2013-07-11 15:10:00,93.7,37.4,30.00,SSE,151,22.4,28.4,14,2.72,,---,2.72,VWS V14.01,2013-07-11 21:10:00,
2013-07-11 15:16:00,93.2,40.4,30.00,SE,128,23.3,27.1,16,2.72,,---,2.72,VWS V14.01,2013-07-11 21:16:00,
2013-07-11 15:21:00,93.4,40.5,30.00,SE,133,24.2,25.7,16,2.72,,---,2.72,VWS V14.01,2013-07-11 21:21:00,
2013-07-11 15:27:00,93.6,40.7,30.00,SE,146,22.8,26.6,16,2.72,,---,2.72,VWS V14.01,2013-07-11 21:27:00,
2013-07-11 15:32:00,93.6,40.7,30.00,SE,140,26.2,26.2,16,2.72,,---,2.72,VWS V14.01,2013-07-11 21:32:00,
2013-07-11 15:38:00,93.6,40.7,30.00,SSE,149,22.4,23.3,16,1.97,,---,2.72,VWS V14.01,2013-07-11 21:38:00,
2013-07-11 15:44:00,93.7,40.8,30.00,SSE,153,26.2,26.2,16,0.94,,---,2.72,VWS V14.01,2013-07-11 21:44:00,
2013-07-11 15:51:00,93.7,40.8,30.00,SE,144,25.5,25.5,16,0.00,,---,2.72,VWS V14.01,2013-07-11 21:51:00,
2013-07-11 15:57:00,94.1,41.1,30.00,SSE,151,19.7,20.1,16,0.00,,---,2.72,VWS V14.01,2013-07-11 21:57:00,
2013-07-11 16:02:00,93.6,40.7,30.00,SSE,147,18.3,26.2,16,0.00,,---,2.72,VWS V14.01,2013-07-11 22:02:00,
2013-07-11 16:07:00,93.6,37.3,30.00,SE,139,22.4,28.0,14,0.00,,---,2.72,VWS V14.01,2013-07-11 22:07:00,
2013-07-11 16:14:00,93.6,37.3,29.97,SE,137,27.5,27.5,14,0.00,,---,2.72,VWS V14.01,2013-07-11 22:14:00,
2013-07-11 16:20:00,93.0,36.8,29.97,ESE,122,26.2,26.2,14,0.00,,---,2.72,VWS V14.01,2013-07-11 22:20:00,
2013-07-11 16:25:00,93.0,36.8,29.97,SE,140,23.3,23.3,14,0.00,,---,2.72,VWS V14.01,2013-07-11 22:25:00,
2013-07-11 16:31:00,93.2,40.4,29.97,SSE,147,23.7,25.7,16,0.00,,---,2.72,VWS V14.01,2013-07-11 22:31:00,
2013-07-11 16:37:00,93.2,40.4,29.97,SE,126,22.4,25.1,16,0.00,,---,2.72,VWS V14.01,2013-07-11 22:37:00,
2013-07-11 16:44:00,92.8,41.7,29.97,SE,132,25.7,26.2,17,0.00,,---,2.72,VWS V14.01,2013-07-11 22:44:00,
2013-07-11 16:50:00,93.0,41.8,29.97,SE,145,19.2,20.6,17,0.00,,---,2.72,VWS V14.01,2013-07-11 22:50:00,
2013-07-11 16:55:00,93.2,37.0,29.97,ESE,122,22.4,23.7,14,0.00,,---,2.72,VWS V14.01,2013-07-11 22:55:00,
2013-07-11 17:01:00,93.2,37.0,29.97,SE,139,23.7,23.7,14,0.00,,---,2.72,VWS V14.01,2013-07-11 23:01:00,
2013-07-11 17:06:00,93.2,37.0,29.97,SE,134,17.4,25.1,14,0.00,,---,2.72,VWS V14.01,2013-07-11 23:06:00,
2013-07-11 17:13:00,93.2,40.4,29.97,SE,130,23.7,23.7,16,0.00,,---,2.72,VWS V14.01,2013-07-11 23:13:00,
2013-07-11 17:19:00,92.8,41.7,29.97,SE,135,20.1,20.1,17,0.00,,---,2.72,VWS V14.01,2013-07-11 23:19:00,
2013-07-11 17:24:00,92.8,41.7,29.97,ESE,122,23.3,23.3,17,0.00,,---,2.72,VWS V14.01,2013-07-11 23:24:00,
2013-07-11 17:30:00,92.7,41.5,29.97,SE,137,20.6,20.6,17,0.00,,---,2.72,VWS V14.01,2013-07-11 23:30:00,
2013-07-11 17:36:00,92.8,41.7,29.94,SE,128,18.3,25.5,17,0.00,,---,2.72,VWS V14.01,2013-07-11 23:36:00,
2013-07-11 17:41:00,93.0,41.8,29.94,SE,139,26.2,26.2,17,0.00,,---,2.72,VWS V14.01,2013-07-11 23:41:00,
2013-07-11 17:47:00,93.7,40.8,29.94,SE,135,25.1,25.1,16,0.00,,---,2.72,VWS V14.01,2013-07-11 23:47:00,
2013-07-11 17:53:00,93.7,40.8,29.94,SE,125,18.8,18.8,16,0.00,,---,2.72,VWS V14.01,2013-07-11 23:53:00,
2013-07-11 17:58:00,93.9,41.0,29.94,SE,131,19.7,25.5,16,0.00,,---,2.72,VWS V14.01,2013-07-11 23:58:00,
2013-07-11 18:04:00,93.9,41.0,29.94,SE,126,21.0,21.0,16,0.00,,---,2.72,VWS V14.01,2013-07-12 00:04:00,
2013-07-11 18:10:00,94.6,41.5,29.94,ESE,123,23.7,23.7,16,0.00,,---,2.72,VWS V14.01,2013-07-12 00:10:00,
2013-07-11 18:15:00,94.8,41.7,29.94,SE,140,19.7,19.7,16,0.00,,---,2.72,VWS V14.01,2013-07-12 00:15:00,
2013-07-11 18:21:00,94.8,41.7,29.94,SE,125,17.4,17.4,16,0.00,,---,2.72,VWS V14.01,2013-07-12 00:21:00,
2013-07-11 18:27:00,94.8,41.7,29.94,SE,130,22.4,22.4,16,0.00,,---,2.72,VWS V14.01,2013-07-12 00:27:00,
2013-07-11 18:33:00,94.8,41.7,29.94,SE,137,17.4,17.4,16,0.00,,---,2.72,VWS V14.01,2013-07-12 00:33:00,
2013-07-11 18:38:00,94.3,41.2,29.94,SE,137,17.4,17.4,16,0.00,,---,2.72,VWS V14.01,2013-07-12 00:38:00,
2013-07-11 18:43:00,94.3,41.2,29.94,SE,137,20.1,22.4,16,0.00,,---,2.72,VWS V14.01,2013-07-12 00:43:00,
2013-07-11 18:49:00,93.2,40.4,29.94,SE,125,19.2,19.2,16,0.00,,---,2.72,VWS V14.01,2013-07-12 00:49:00,
2013-07-11 18:55:00,93.2,40.4,29.91,ESE,117,19.7,22.4,16,0.00,,---,2.72,VWS V14.01,2013-07-12 00:55:00,
2013-07-11 19:01:00,93.2,40.4,29.91,SE,130,17.4,17.4,16,0.00,,---,2.72,VWS V14.01,2013-07-12 01:01:00,
2013-07-11 19:07:00,93.7,42.4,29.91,ESE,108,18.3,18.3,17,0.00,,---,2.72,VWS V14.01,2013-07-12 01:07:00,
2013-07-11 19:12:00,93.4,42.1,29.91,ESE,110,15.9,15.9,17,0.00,,---,2.72,VWS V14.01,2013-07-12 01:12:00,
2013-07-11 19:18:00,93.4,42.1,29.91,ESE,121,18.8,18.8,17,0.00,,---,2.72,VWS V14.01,2013-07-12 01:18:00,
2013-07-11 19:24:00,92.5,41.4,29.94,ESE,118,19.7,19.7,17,0.00,,---,2.72,VWS V14.01,2013-07-12 01:24:00,
2013-07-11 19:30:00,92.7,41.5,29.94,ESE,115,15.4,15.4,17,0.00,,---,2.72,VWS V14.01,2013-07-12 01:30:00,
2013-07-11 19:37:00,92.1,41.1,29.91,ESE,112,17.4,17.4,17,0.00,,---,2.72,VWS V14.01,2013-07-12 01:37:00,
2013-07-11 19:43:00,90.7,41.4,29.91,ESE,119,20.1,20.1,18,0.00,,---,2.72,VWS V14.01,2013-07-12 01:43:00,
2013-07-11 19:49:00,89.6,40.5,29.91,ESE,105,15.0,15.0,18,0.00,,---,2.72,VWS V14.01,2013-07-12 01:49:00,
2013-07-11 19:54:00,88.7,41.2,29.94,ESE,105,15.0,15.0,19,0.00,,---,2.72,VWS V14.01,2013-07-12 01:54:00,
2013-07-11 20:00:00,87.8,40.5,29.94,ESE,117,15.4,15.4,19,0.00,,---,2.72,VWS V14.01,2013-07-12 02:00:00,
2013-07-11 20:05:00,87.1,39.9,29.94,ESE,113,12.8,12.8,19,0.00,,---,2.72,VWS V14.01,2013-07-12 02:05:00,
2013-07-11 20:11:00,84.9,39.4,29.94,ESE,118,16.8,16.8,20,0.00,,---,2.72,VWS V14.01,2013-07-12 02:11:00,
2013-07-11 20:17:00,84.6,40.4,29.94,ESE,116,13.2,15.0,21,0.00,,---,2.72,VWS V14.01,2013-07-12 02:17:00,
2013-07-11 20:22:00,84.0,41.1,29.94,ESE,122,14.1,14.1,22,0.00,,---,2.72,VWS V14.01,2013-07-12 02:22:00,
2013-07-11 20:27:00,84.0,41.1,29.94,ESE,115,15.0,15.0,22,0.00,,---,2.72,VWS V14.01,2013-07-12 02:27:00,
2013-07-11 20:33:00,83.5,40.7,29.94,ESE,120,15.4,15.4,22,0.00,,---,2.72,VWS V14.01,2013-07-12 02:33:00,
2013-07-11 20:39:00,82.0,42.8,29.94,ESE,118,16.3,16.3,25,0.00,,---,2.72,VWS V14.01,2013-07-12 02:39:00,
2013-07-11 20:45:00,82.0,42.8,29.94,ESE,122,18.8,18.8,25,0.00,,---,2.72,VWS V14.01,2013-07-12 02:45:00,
2013-07-11 20:50:00,82.2,44.0,29.94,SE,124,17.9,18.8,26,0.00,,---,2.72,VWS V14.01,2013-07-12 02:50:00,
2013-07-11 20:56:00,82.0,43.8,29.94,ESE,120,15.4,15.4,26,0.00,,---,2.72,VWS V14.01,2013-07-12 02:56:00,
2013-07-11 21:02:00,81.7,43.5,29.94,ESE,120,15.4,15.4,26,0.00,,---,2.72,VWS V14.01,2013-07-12 03:02:00,
2013-07-11 21:08:00,80.8,43.7,29.94,ESE,111,19.7,19.7,27,0.00,,---,2.72,VWS V14.01,2013-07-12 03:08:00,
2013-07-11 21:14:00,80.4,44.4,29.94,ESE,106,19.2,19.2,28,0.00,,---,2.72,VWS V14.01,2013-07-12 03:14:00,
2013-07-11 21:20:00,81.0,44.8,29.94,ESE,119,17.9,17.9,28,0.00,,---,2.72,VWS V14.01,2013-07-12 03:20:00,
2013-07-11 21:25:00,81.0,44.8,29.94,ESE,119,17.9,17.9,28,0.00,,---,2.72,VWS V14.01,2013-07-12 03:25:00,
2013-07-11 21:31:00,80.1,45.9,29.94,ESE,119,17.9,17.9,30,0.00,,---,2.72,VWS V14.01,2013-07-12 03:31:00,
2013-07-11 21:36:00,79.7,45.6,29.94,ESE,119,19.7,19.7,30,0.00,,---,2.72,VWS V14.01,2013-07-12 03:36:00,
2013-07-11 21:42:00,79.7,45.6,29.97,SE,125,19.2,19.2,30,0.00,,---,2.72,VWS V14.01,2013-07-12 03:42:00,
2013-07-11 21:47:00,80.2,46.0,29.97,SE,126,16.8,16.8,30,0.00,,---,2.72,VWS V14.01,2013-07-12 03:47:00,
2013-07-11 21:52:00,80.2,46.0,29.97,ESE,121,15.4,15.4,30,0.00,,---,2.72,VWS V14.01,2013-07-12 03:52:00,
2013-07-11 21:58:00,79.3,45.2,29.97,SE,143,17.4,17.4,30,0.00,,---,2.72,VWS V14.01,2013-07-12 03:58:00,
2013-07-11 22:01:00,79.3,45.2,29.97,ESE,122,16.8,16.8,30,0.00,,---,2.72,VWS V14.01,2013-07-12 04:01:00,
2013-07-11 22:02:00,79.3,45.2,29.97,SE,125,17.4,17.4,30,0.00,,---,2.72,VWS V14.01,2013-07-12 04:02:00,
2013-07-11 22:03:00,79.3,45.2,29.97,SE,125,17.4,17.4,30,0.00,,---,2.72,VWS V14.01,2013-07-12 04:03:00,
2013-07-11 22:07:00,78.4,46.2,29.97,SE,125,17.4,17.4,32,0.00,,---,2.72,VWS V14.01,2013-07-12 04:07:00,
2013-07-11 22:10:00,78.4,46.2,29.97,ESE,122,16.3,16.3,32,0.00,,---,2.72,VWS V14.01,2013-07-12 04:10:00,
2013-07-11 22:16:00,78.4,46.2,29.97,SE,125,15.4,21.5,32,0.00,,---,2.72,VWS V14.01,2013-07-12 04:16:00,
2013-07-11 22:21:00,78.8,47.3,29.97,SE,125,15.4,15.4,33,0.00,,---,2.72,VWS V14.01,2013-07-12 04:21:00,
2013-07-11 22:27:00,78.6,47.1,29.97,ESE,122,18.3,18.3,33,0.00,,---,2.72,VWS V14.01,2013-07-12 04:27:00,
2013-07-11 22:33:00,78.6,47.1,29.97,SE,131,22.8,25.1,33,0.00,,---,2.72,VWS V14.01,2013-07-12 04:33:00,
2013-07-11 22:38:00,77.5,48.5,29.97,ESE,120,26.2,26.2,36,0.00,,---,2.72,VWS V14.01,2013-07-12 04:38:00,
2013-07-11 22:44:00,77.0,49.5,29.97,SE,124,22.8,23.7,38,0.00,,---,2.72,VWS V14.01,2013-07-12 04:44:00,
2013-07-11 22:49:00,77.2,49.6,29.97,SE,128,15.4,22.4,38,0.00,,---,2.72,VWS V14.01,2013-07-12 04:49:00,
2013-07-11 22:55:00,77.2,49.6,29.97,ESE,121,15.9,15.9,38,0.00,,---,2.72,VWS V14.01,2013-07-12 04:55:00,
2013-07-11 23:01:00,77.2,49.6,29.97,SE,128,19.7,19.7,38,0.00,,---,2.72,VWS V14.01,2013-07-12 05:01:00,
2013-07-11 23:06:00,76.1,50.0,29.97,SE,133,19.2,19.2,40,0.00,,---,2.72,VWS V14.01,2013-07-12 05:06:00,
2013-07-11 23:12:00,75.4,50.7,29.97,SE,133,19.2,19.2,42,0.00,,---,2.72,VWS V14.01,2013-07-12 05:12:00,
2013-07-11 23:17:00,75.4,50.7,29.97,SE,131,16.8,17.4,42,0.00,,---,2.72,VWS V14.01,2013-07-12 05:17:00,
2013-07-11 23:22:00,75.4,50.7,29.97,SE,125,17.4,17.4,42,0.00,,---,2.72,VWS V14.01,2013-07-12 05:22:00,
2013-07-11 23:27:00,74.8,50.9,29.97,SE,128,18.8,18.8,43,0.00,,---,2.72,VWS V14.01,2013-07-12 05:27:00,
2013-07-11 23:33:00,74.7,51.3,29.97,SE,129,17.4,17.4,44,0.00,,---,2.72,VWS V14.01,2013-07-12 05:33:00,
2013-07-11 23:38:00,74.1,51.4,29.97,SE,129,17.4,17.4,45,0.00,,---,2.72,VWS V14.01,2013-07-12 05:38:00,
2013-07-11 23:44:00,74.1,51.4,29.97,SE,131,17.4,17.4,45,0.00,,---,2.72,VWS V14.01,2013-07-12 05:44:00,
2013-07-11 23:50:00,74.1,52.0,29.97,SE,127,18.3,18.3,46,0.00,,---,2.72,VWS V14.01,2013-07-12 05:50:00,
2013-07-11 23:55:00,73.8,51.7,29.97,SE,126,15.4,15.4,46,0.00,,---,2.72,VWS V14.01,2013-07-12 05:55:00,